Grain Valley, Missouri
Current Conditions -  °F | °C
As of 1:53 PM on Wednesday 28 Jan 2015 (Local Time) from KLXT Reporting Station
Clear Clear  
Wind Chill: 71°   Ceiling: Unl
Heat Index: 71°   Visibility: 10mi
Dew Point: 39°   Wind: 13mph
Humidity: 31%   Direction: 170°S
Pressure: 29.78"   Gusts: 23mph
Location:  39.02°N, 94.2°W
Report Text: KLXT 281953Z AUTO 17011G20KT 10SM CLR 22/04 A2978 RMK AO2 PK WND 17026/1857 SLP082 T02170039
Loading
Personal Weather Stations






























Interactive Weather Map New forecast layout! Learn more

10-Day Weather Forecast

Advertisements
Track Severe Weather on mobile